sensor_id;sensor_type;location;lat;lon;timestamp;pressure;altitude;pressure_sealevel;temperature;humidity
16355;BME280;8287;51.644;8.494;2024-03-17T00:01:05;101170.69;;;9.16;76.99
16355;BME280;8287;51.644;8.494;2024-03-17T00:03:32;101175.44;;;9.19;76.69
16355;BME280;8287;51.644;8.494;2024-03-17T00:05:59;101164.88;;;9.19;77.02
16355;BME280;8287;51.644;8.494;2024-03-17T00:08:26;101165.47;;;9.11;76.58
16355;BME280;8287;51.644;8.494;2024-03-17T00:10:52;101171.75;;;9.15;77.34
16355;BME280;8287;51.644;8.494;2024-03-17T00:13:20;101167.22;;;9.21;77.00
16355;BME280;8287;51.644;8.494;2024-03-17T00:15:46;101169.88;;;9.21;76.58
16355;BME280;8287;51.644;8.494;2024-03-17T00:18:13;101166.97;;;9.17;76.85
16355;BME280;8287;51.644;8.494;2024-03-17T00:20:38;101170.19;;;9.14;76.80
16355;BME280;8287;51.644;8.494;2024-03-17T00:23:05;101160.94;;;9.17;77.00
16355;BME280;8287;51.644;8.494;2024-03-17T00:25:34;101165.16;;;9.13;76.53
16355;BME280;8287;51.644;8.494;2024-03-17T00:28:01;101161.00;;;9.02;77.61
16355;BME280;8287;51.644;8.494;2024-03-17T00:30:27;101166.84;;;8.99;78.46
16355;BME280;8287;51.644;8.494;2024-03-17T00:32:53;101166.31;;;8.97;79.06
16355;BME280;8287;51.644;8.494;2024-03-17T00:35:19;101166.63;;;8.90;79.18
16355;BME280;8287;51.644;8.494;2024-03-17T00:37:50;101169.81;;;8.87;79.72
16355;BME280;8287;51.644;8.494;2024-03-17T00:40:17;101163.44;;;8.93;79.56
16355;BME280;8287;51.644;8.494;2024-03-17T00:42:43;101165.53;;;8.91;79.75
16355;BME280;8287;51.644;8.494;2024-03-17T00:45:10;101169.50;;;8.94;79.32
16355;BME280;8287;51.644;8.494;2024-03-17T00:47:37;101157.09;;;8.94;79.26
16355;BME280;8287;51.644;8.494;2024-03-17T00:50:04;101153.13;;;8.92;79.33
16355;BME280;8287;51.644;8.494;2024-03-17T00:52:32;101154.19;;;8.91;79.70
16355;BME280;8287;51.644;8.494;2024-03-17T00:54:57;101149.44;;;8.88;80.09
16355;BME280;8287;51.644;8.494;2024-03-17T00:57:24;101141.81;;;8.81;80.51
16355;BME280;8287;51.644;8.494;2024-03-17T00:59:50;101144.72;;;8.80;81.06
16355;BME280;8287;51.644;8.494;2024-03-17T01:02:17;101137.16;;;8.68;81.21
16355;BME280;8287;51.644;8.494;2024-03-17T01:04:43;101142.38;;;8.78;81.71
16355;BME280;8287;51.644;8.494;2024-03-17T01:07:11;101140.50;;;8.84;81.46
16355;BME280;8287;51.644;8.494;2024-03-17T01:09:37;101133.94;;;8.76;81.28
16355;BME280;8287;51.644;8.494;2024-03-17T01:12:04;101139.75;;;8.73;82.01
16355;BME280;8287;51.644;8.494;2024-03-17T01:14:30;101145.03;;;8.78;81.58
16355;BME280;8287;51.644;8.494;2024-03-17T01:16:57;101144.00;;;8.69;82.76
16355;BME280;8287;51.644;8.494;2024-03-17T01:19:23;101138.47;;;8.66;82.35
16355;BME280;8287;51.644;8.494;2024-03-17T01:21:49;101134.22;;;8.70;82.39
16355;BME280;8287;51.644;8.494;2024-03-17T01:24:17;101136.84;;;8.70;82.56
16355;BME280;8287;51.644;8.494;2024-03-17T01:26:43;101136.59;;;8.71;82.51
16355;BME280;8287;51.644;8.494;2024-03-17T01:29:09;101128.13;;;8.74;82.45
16355;BME280;8287;51.644;8.494;2024-03-17T01:31:36;101135.28;;;8.74;82.58
16355;BME280;8287;51.644;8.494;2024-03-17T01:34:01;101136.34;;;8.68;82.65
16355;BME280;8287;51.644;8.494;2024-03-17T01:36:28;101128.16;;;8.69;82.75
16355;BME280;8287;51.644;8.494;2024-03-17T01:38:54;101125.22;;;8.71;82.35
16355;BME280;8287;51.644;8.494;2024-03-17T01:41:20;101123.16;;;8.63;82.35
16355;BME280;8287;51.644;8.494;2024-03-17T01:43:46;101120.78;;;8.61;82.73
16355;BME280;8287;51.644;8.494;2024-03-17T01:46:14;101110.19;;;8.66;82.75
16355;BME280;8287;51.644;8.494;2024-03-17T01:48:40;101108.63;;;8.65;82.77
16355;BME280;8287;51.644;8.494;2024-03-17T01:51:08;101107.06;;;8.59;82.24
16355;BME280;8287;51.644;8.494;2024-03-17T01:53:37;101097.53;;;8.58;82.49
16355;BME280;8287;51.644;8.494;2024-03-17T01:56:03;101107.59;;;8.56;83.24
16355;BME280;8287;51.644;8.494;2024-03-17T01:58:32;101099.72;;;8.51;82.72
16355;BME280;8287;51.644;8.494;2024-03-17T02:00:59;101085.44;;;8.52;82.39
16355;BME280;8287;51.644;8.494;2024-03-17T02:03:24;101086.50;;;8.51;82.65
16355;BME280;8287;51.644;8.494;2024-03-17T02:05:51;101087.34;;;8.47;82.67
16355;BME280;8287;51.644;8.494;2024-03-17T02:08:16;101092.56;;;8.52;82.81
16355;BME280;8287;51.644;8.494;2024-03-17T02:10:43;101096.03;;;8.42;83.13
16355;BME280;8287;51.644;8.494;2024-03-17T02:13:09;101092.63;;;8.37;83.44
16355;BME280;8287;51.644;8.494;2024-03-17T02:15:35;101094.50;;;8.36;83.42
16355;BME280;8287;51.644;8.494;2024-03-17T02:18:01;101086.63;;;8.26;84.65
16355;BME280;8287;51.644;8.494;2024-03-17T02:20:27;101082.94;;;8.17;85.46
16355;BME280;8287;51.644;8.494;2024-03-17T02:23:07;101083.75;;;8.08;86.78
16355;BME280;8287;51.644;8.494;2024-03-17T02:25:34;101084.53;;;8.08;86.83
16355;BME280;8287;51.644;8.494;2024-03-17T02:28:00;101094.53;;;8.16;87.44
16355;BME280;8287;51.644;8.494;2024-03-17T02:30:27;101084.00;;;8.06;87.38
16355;BME280;8287;51.644;8.494;2024-03-17T02:32:53;101081.91;;;8.03;87.20
16355;BME280;8287;51.644;8.494;2024-03-17T02:35:22;101091.41;;;7.99;86.89
16355;BME280;8287;51.644;8.494;2024-03-17T02:37:47;101104.13;;;7.92;87.57
16355;BME280;8287;51.644;8.494;2024-03-17T02:40:14;101093.31;;;7.84;88.25
16355;BME280;8287;51.644;8.494;2024-03-17T02:42:41;101090.44;;;7.75;88.20
16355;BME280;8287;51.644;8.494;2024-03-17T02:45:10;101094.09;;;7.79;89.33
16355;BME280;8287;51.644;8.494;2024-03-17T02:47:37;101091.75;;;7.68;88.95
16355;BME280;8287;51.644;8.494;2024-03-17T02:50:04;101092.00;;;7.66;90.55
16355;BME280;8287;51.644;8.494;2024-03-17T02:52:30;101093.06;;;7.70;90.83
16355;BME280;8287;51.644;8.494;2024-03-17T02:54:57;101083.56;;;7.69;91.38
16355;BME280;8287;51.644;8.494;2024-03-17T02:57:24;101078.56;;;7.68;90.77
16355;BME280;8287;51.644;8.494;2024-03-17T02:59:54;101078.84;;;7.61;89.89
16355;BME280;8287;51.644;8.494;2024-03-17T03:02:21;101066.19;;;7.48;90.25
16355;BME280;8287;51.644;8.494;2024-03-17T03:04:47;101077.53;;;7.44;90.90
16355;BME280;8287;51.644;8.494;2024-03-17T03:07:13;101077.28;;;7.50;91.49
16355;BME280;8287;51.644;8.494;2024-03-17T03:09:40;101074.09;;;7.48;91.24
16355;BME280;8287;51.644;8.494;2024-03-17T03:12:06;101076.75;;;7.33;90.77
16355;BME280;8287;51.644;8.494;2024-03-17T03:14:33;101076.47;;;7.35;91.81
16355;BME280;8287;51.644;8.494;2024-03-17T03:17:00;101084.38;;;7.35;91.94
16355;BME280;8287;51.644;8.494;2024-03-17T03:19:27;101079.91;;;7.20;92.00
16355;BME280;8287;51.644;8.494;2024-03-17T03:21:55;101070.66;;;7.28;92.92
16355;BME280;8287;51.644;8.494;2024-03-17T03:24:22;101074.13;;;7.18;92.86
16355;BME280;8287;51.644;8.494;2024-03-17T03:26:48;101074.63;;;7.20;92.78
16355;BME280;8287;51.644;8.494;2024-03-17T03:29:15;101073.31;;;7.18;92.91
16355;BME280;8287;51.644;8.494;2024-03-17T03:31:41;101077.78;;;7.22;93.74
16355;BME280;8287;51.644;8.494;2024-03-17T03:34:08;101075.69;;;7.19;93.21
16355;BME280;8287;51.644;8.494;2024-03-17T03:36:35;101084.66;;;7.18;93.49
16355;BME280;8287;51.644;8.494;2024-03-17T03:39:02;101087.28;;;7.13;93.32
16355;BME280;8287;51.644;8.494;2024-03-17T03:41:31;101090.44;;;7.15;94.06
16355;BME280;8287;51.644;8.494;2024-03-17T03:43:57;101090.97;;;7.12;93.68
16355;BME280;8287;51.644;8.494;2024-03-17T03:46:24;101097.28;;;7.06;92.20
16355;BME280;8287;51.644;8.494;2024-03-17T03:48:50;101095.97;;;6.99;92.88
16355;BME280;8287;51.644;8.494;2024-03-17T03:51:17;101095.97;;;6.99;94.23
16355;BME280;8287;51.644;8.494;2024-03-17T03:53:44;101098.84;;;6.97;93.89
16355;BME280;8287;51.644;8.494;2024-03-17T03:56:10;101093.84;;;6.91;93.55
16355;BME280;8287;51.644;8.494;2024-03-17T03:58:38;101099.09;;;6.86;93.77
16355;BME280;8287;51.644;8.494;2024-03-17T04:01:09;101096.47;;;6.91;92.33
16355;BME280;8287;51.644;8.494;2024-03-17T04:03:36;101089.38;;;6.91;92.11
16355;BME280;8287;51.644;8.494;2024-03-17T04:06:05;101089.91;;;6.93;91.52
16355;BME280;8287;51.644;8.494;2024-03-17T04:08:33;101100.41;;;6.88;91.01
16355;BME280;8287;51.644;8.494;2024-03-17T04:11:00;101096.22;;;6.92;91.54
16355;BME280;8287;51.644;8.494;2024-03-17T04:13:28;101090.69;;;6.89;90.09
16355;BME280;8287;51.644;8.494;2024-03-17T04:15:56;101093.03;;;6.90;90.42
16355;BME280;8287;51.644;8.494;2024-03-17T04:18:24;101097.53;;;7.00;89.42
16355;BME280;8287;51.644;8.494;2024-03-17T04:20:52;101095.69;;;6.95;88.85
16355;BME280;8287;51.644;8.494;2024-03-17T04:23:20;101096.75;;;6.94;89.45
16355;BME280;8287;51.644;8.494;2024-03-17T04:25:47;101094.38;;;6.98;89.08
16355;BME280;8287;51.644;8.494;2024-03-17T04:28:15;101099.13;;;7.01;88.84
16355;BME280;8287;51.644;8.494;2024-03-17T04:30:42;101105.47;;;7.05;88.42
16355;BME280;8287;51.644;8.494;2024-03-17T04:33:12;101102.28;;;7.08;88.64
16355;BME280;8287;51.644;8.494;2024-03-17T04:35:39;101099.13;;;7.11;88.52
16355;BME280;8287;51.644;8.494;2024-03-17T04:38:06;101099.13;;;7.11;88.64
16355;BME280;8287;51.644;8.494;2024-03-17T04:40:33;101101.75;;;7.11;88.80
16355;BME280;8287;51.644;8.494;2024-03-17T04:43:00;101103.09;;;7.13;88.59
16355;BME280;8287;51.644;8.494;2024-03-17T04:45:27;101093.84;;;7.11;88.73
16355;BME280;8287;51.644;8.494;2024-03-17T04:47:53;101097.03;;;7.18;88.72
16355;BME280;8287;51.644;8.494;2024-03-17T04:50:20;101093.09;;;7.10;88.75
16355;BME280;8287;51.644;8.494;2024-03-17T04:52:47;101094.66;;;7.01;89.33
16355;BME280;8287;51.644;8.494;2024-03-17T04:55:14;101097.53;;;6.90;90.34
16355;BME280;8287;51.644;8.494;2024-03-17T04:57:42;101101.22;;;6.99;90.81
16355;BME280;8287;51.644;8.494;2024-03-17T05:00:09;101102.53;;;7.06;91.21
16355;BME280;8287;51.644;8.494;2024-03-17T05:02:37;101098.63;;;7.14;91.97
16355;BME280;8287;51.644;8.494;2024-03-17T05:05:04;101099.41;;;7.09;92.22
16355;BME280;8287;51.644;8.494;2024-03-17T05:07:33;101097.25;;;6.96;92.66
16355;BME280;8287;51.644;8.494;2024-03-17T05:09:59;101095.44;;;7.02;93.46
16355;BME280;8287;51.644;8.494;2024-03-17T05:12:26;101105.19;;;7.06;92.89
16355;BME280;8287;51.644;8.494;2024-03-17T05:14:52;101098.88;;;7.02;92.25
16355;BME280;8287;51.644;8.494;2024-03-17T05:17:18;101099.63;;;6.93;93.03
16355;BME280;8287;51.644;8.494;2024-03-17T05:19:45;101105.41;;;6.95;93.45
16355;BME280;8287;51.644;8.494;2024-03-17T05:22:12;101110.44;;;6.91;93.32
16355;BME280;8287;51.644;8.494;2024-03-17T05:24:38;101108.03;;;6.85;92.96
16355;BME280;8287;51.644;8.494;2024-03-17T05:27:05;101108.03;;;6.85;93.12
16355;BME280;8287;51.644;8.494;2024-03-17T05:29:31;101099.38;;;6.84;93.49
16355;BME280;8287;51.644;8.494;2024-03-17T05:31:58;101109.38;;;6.87;94.38
16355;BME280;8287;51.644;8.494;2024-03-17T05:34:24;101097.47;;;6.65;94.59
16355;BME280;8287;51.644;8.494;2024-03-17T05:36:51;101098.78;;;6.62;94.72
16355;BME280;8287;51.644;8.494;2024-03-17T05:39:17;101095.13;;;6.78;96.01
16355;BME280;8287;51.644;8.494;2024-03-17T05:41:45;101085.41;;;6.84;95.87
16355;BME280;8287;51.644;8.494;2024-03-17T05:44:14;101101.44;;;6.67;94.62
16355;BME280;8287;51.644;8.494;2024-03-17T05:46:41;101082.91;;;6.47;94.79
16355;BME280;8287;51.644;8.494;2024-03-17T05:49:08;101089.00;;;6.53;94.56
16355;BME280;8287;51.644;8.494;2024-03-17T05:51:35;101086.09;;;6.49;94.87
16355;BME280;8287;51.644;8.494;2024-03-17T05:54:02;101090.84;;;6.52;95.08
16355;BME280;8287;51.644;8.494;2024-03-17T05:56:28;101089.25;;;6.42;94.60
16355;BME280;8287;51.644;8.494;2024-03-17T05:58:55;101086.88;;;6.50;95.18
16355;BME280;8287;51.644;8.494;2024-03-17T06:01:21;101093.69;;;6.41;94.51
16355;BME280;8287;51.644;8.494;2024-03-17T06:03:48;101085.06;;;6.50;94.43
16355;BME280;8287;51.644;8.494;2024-03-17T06:06:14;101090.06;;;6.62;93.90
16355;BME280;8287;51.644;8.494;2024-03-17T06:08:41;101075.31;;;6.61;93.71
16355;BME280;8287;51.644;8.494;2024-03-17T06:11:07;101076.09;;;6.51;93.53
16355;BME280;8287;51.644;8.494;2024-03-17T06:13:34;101078.22;;;6.54;93.24
16355;BME280;8287;51.644;8.494;2024-03-17T06:16:02;101079.53;;;6.62;92.86
16355;BME280;8287;51.644;8.494;2024-03-17T06:18:30;101079.78;;;6.55;92.75
16355;BME280;8287;51.644;8.494;2024-03-17T06:20:56;101082.44;;;6.60;92.11
16355;BME280;8287;51.644;8.494;2024-03-17T06:23:24;101088.25;;;6.67;92.68
16355;BME280;8287;51.644;8.494;2024-03-17T06:25:52;101090.13;;;6.72;92.13
16355;BME280;8287;51.644;8.494;2024-03-17T06:28:19;101083.00;;;6.77;91.64
16355;BME280;8287;51.644;8.494;2024-03-17T06:30:55;101082.53;;;6.95;91.56
16355;BME280;8287;51.644;8.494;2024-03-17T06:33:25;101085.41;;;6.94;91.16
16355;BME280;8287;51.644;8.494;2024-03-17T06:35:53;101086.22;;;7.04;90.84
16355;BME280;8287;51.644;8.494;2024-03-17T06:38:19;101082.00;;;7.03;90.19
16355;BME280;8287;51.644;8.494;2024-03-17T06:40:50;101085.16;;;7.15;90.60
16355;BME280;8287;51.644;8.494;2024-03-17T06:43:17;101081.22;;;7.18;90.16
16355;BME280;8287;51.644;8.494;2024-03-17T06:45:44;101087.03;;;7.30;90.48
16355;BME280;8287;51.644;8.494;2024-03-17T06:48:10;101080.72;;;7.31;89.63
16355;BME280;8287;51.644;8.494;2024-03-17T06:50:38;101074.63;;;7.45;90.13
16355;BME280;8287;51.644;8.494;2024-03-17T06:53:06;101066.19;;;7.53;90.17
16355;BME280;8287;51.644;8.494;2024-03-17T06:55:33;101074.59;;;7.65;89.91
16355;BME280;8287;51.644;8.494;2024-03-17T06:58:00;101072.44;;;7.87;89.07
16355;BME280;8287;51.644;8.494;2024-03-17T07:00:27;101070.75;;;8.16;87.04
16355;BME280;8287;51.644;8.494;2024-03-17T07:02:53;101059.75;;;8.04;85.96
16355;BME280;8287;51.644;8.494;2024-03-17T07:05:20;101062.38;;;8.19;85.64
16355;BME280;8287;51.644;8.494;2024-03-17T07:07:46;101052.31;;;8.21;84.35
16355;BME280;8287;51.644;8.494;2024-03-17T07:10:13;101066.47;;;8.40;84.86
16355;BME280;8287;51.644;8.494;2024-03-17T07:12:41;101065.66;;;8.50;84.24
16355;BME280;8287;51.644;8.494;2024-03-17T07:15:08;101071.94;;;8.54;83.28
16355;BME280;8287;51.644;8.494;2024-03-17T07:17:36;101064.34;;;8.47;83.01
16355;BME280;8287;51.644;8.494;2024-03-17T07:20:02;101059.03;;;8.52;83.04
16355;BME280;8287;51.644;8.494;2024-03-17T07:22:33;101060.91;;;8.47;82.73
16355;BME280;8287;51.644;8.494;2024-03-17T07:25:00;101045.91;;;8.37;82.30
16355;BME280;8287;51.644;8.494;2024-03-17T07:27:28;101055.66;;;8.37;82.75
16355;BME280;8287;51.644;8.494;2024-03-17T07:29:54;101052.75;;;8.38;83.24
16355;BME280;8287;51.644;8.494;2024-03-17T07:32:23;101047.97;;;8.45;82.57
16355;BME280;8287;51.644;8.494;2024-03-17T07:34:49;101052.69;;;8.53;82.53
16355;BME280;8287;51.644;8.494;2024-03-17T07:37:17;101055.25;;;8.68;83.05
16355;BME280;8287;51.644;8.494;2024-03-17T07:39:43;101046.78;;;8.66;82.17
16355;BME280;8287;51.644;8.494;2024-03-17T07:42:10;101046.63;;;8.91;81.85
16355;BME280;8287;51.644;8.494;2024-03-17T07:44:38;101051.72;;;9.16;81.50
16355;BME280;8287;51.644;8.494;2024-03-17T07:47:05;101049.75;;;9.32;81.06
16355;BME280;8287;51.644;8.494;2024-03-17T07:49:31;101038.75;;;9.48;80.22
16355;BME280;8287;51.644;8.494;2024-03-17T07:51:58;101038.72;;;9.53;78.19
16355;BME280;8287;51.644;8.494;2024-03-17T07:54:25;101040.53;;;9.81;78.69
16355;BME280;8287;51.644;8.494;2024-03-17T07:56:53;101035.81;;;10.01;78.11
16355;BME280;8287;51.644;8.494;2024-03-17T07:59:20;101032.66;;;10.23;77.83
16355;BME280;8287;51.644;8.494;2024-03-17T08:01:46;101037.13;;;10.46;74.91
16355;BME280;8287;51.644;8.494;2024-03-17T08:04:13;101031.59;;;10.42;75.49
16355;BME280;8287;51.644;8.494;2024-03-17T08:06:39;101046.94;;;10.64;74.82
16355;BME280;8287;51.644;8.494;2024-03-17T08:09:07;101041.91;;;10.62;74.05
16355;BME280;8287;51.644;8.494;2024-03-17T08:11:37;101051.50;;;10.95;74.51
16355;BME280;8287;51.644;8.494;2024-03-17T08:14:04;101040.25;;;11.35;74.68
16355;BME280;8287;51.644;8.494;2024-03-17T08:16:31;101044.28;;;11.65;73.99
16355;BME280;8287;51.644;8.494;2024-03-17T08:18:57;101035.91;;;11.71;72.03
16355;BME280;8287;51.644;8.494;2024-03-17T08:21:24;101042.72;;;11.91;70.79
16355;BME280;8287;51.644;8.494;2024-03-17T08:23:52;101034.03;;;12.26;72.28
16355;BME280;8287;51.644;8.494;2024-03-17T08:26:18;101046.19;;;12.54;69.53
16355;BME280;8287;51.644;8.494;2024-03-17T08:28:45;101038.00;;;12.86;69.47
16355;BME280;8287;51.644;8.494;2024-03-17T08:31:12;101043.69;;;12.71;66.53
16355;BME280;8287;51.644;8.494;2024-03-17T08:33:40;101036.50;;;12.93;66.77
16355;BME280;8287;51.644;8.494;2024-03-17T08:36:07;101044.22;;;13.17;66.66
16355;BME280;8287;51.644;8.494;2024-03-17T08:38:43;101029.53;;;12.97;65.99
16355;BME280;8287;51.644;8.494;2024-03-17T08:41:10;101037.31;;;13.16;63.45
16355;BME280;8287;51.644;8.494;2024-03-17T08:43:44;101026.53;;;13.42;65.79
16355;BME280;8287;51.644;8.494;2024-03-17T08:46:12;101027.53;;;13.55;64.08
16355;BME280;8287;51.644;8.494;2024-03-17T08:48:39;101029.81;;;13.78;62.12
16355;BME280;8287;51.644;8.494;2024-03-17T08:51:07;101024.41;;;13.92;61.42
16355;BME280;8287;51.644;8.494;2024-03-17T08:53:34;101027.47;;;13.77;61.11
16355;BME280;8287;51.644;8.494;2024-03-17T08:56:03;101020.97;;;14.08;59.88
16355;BME280;8287;51.644;8.494;2024-03-17T08:58:31;101027.00;;;14.31;60.68
16355;BME280;8287;51.644;8.494;2024-03-17T09:01:07;101021.53;;;14.44;59.54
16355;BME280;8287;51.644;8.494;2024-03-17T09:03:34;101015.91;;;14.46;59.01
16355;BME280;8287;51.644;8.494;2024-03-17T09:06:01;101008.88;;;14.67;59.53
16355;BME280;8287;51.644;8.494;2024-03-17T09:08:26;101024.22;;;14.87;56.36
16355;BME280;8287;51.644;8.494;2024-03-17T09:10:53;101015.44;;;14.86;57.27
16355;BME280;8287;51.644;8.494;2024-03-17T09:13:22;101017.66;;;14.76;57.59
16355;BME280;8287;51.644;8.494;2024-03-17T09:15:54;101010.09;;;14.86;56.80
16355;BME280;8287;51.644;8.494;2024-03-17T09:18:22;101002.25;;;14.56;56.12
16355;BME280;8287;51.644;8.494;2024-03-17T09:20:58;101010.25;;;14.56;53.47
16355;BME280;8287;51.644;8.494;2024-03-17T09:23:26;101006.47;;;14.40;56.34
16355;BME280;8287;51.644;8.494;2024-03-17T09:26:09;101013.25;;;14.63;55.35
16355;BME280;8287;51.644;8.494;2024-03-17T09:28:37;101008.69;;;14.89;55.09
16355;BME280;8287;51.644;8.494;2024-03-17T09:31:04;101016.03;;;14.24;52.77
16355;BME280;8287;51.644;8.494;2024-03-17T09:33:33;101023.75;;;14.42;55.09
16355;BME280;8287;51.644;8.494;2024-03-17T09:36:04;101022.50;;;14.65;55.52
16355;BME280;8287;51.644;8.494;2024-03-17T09:38:32;101032.72;;;14.80;53.32
16355;BME280;8287;51.644;8.494;2024-03-17T09:41:00;101021.09;;;14.59;54.53
16355;BME280;8287;51.644;8.494;2024-03-17T09:43:31;101025.31;;;14.60;56.96
16355;BME280;8287;51.644;8.494;2024-03-17T09:45:58;101016.03;;;14.24;55.30
16355;BME280;8287;51.644;8.494;2024-03-17T09:48:27;101016.22;;;14.61;54.98
16355;BME280;8287;51.644;8.494;2024-03-17T09:50:57;101014.03;;;14.72;54.78
16355;BME280;8287;51.644;8.494;2024-03-17T09:53:32;101024.41;;;14.73;55.00
16355;BME280;8287;51.644;8.494;2024-03-17T09:56:01;101017.94;;;14.83;56.49
16355;BME280;8287;51.644;8.494;2024-03-17T09:58:29;101027.03;;;14.99;56.68
16355;BME280;8287;51.644;8.494;2024-03-17T10:00:55;101020.75;;;15.03;55.90
16355;BME280;8287;51.644;8.494;2024-03-17T10:06:14;101014.31;;;15.04;53.35
16355;BME280;8287;51.644;8.494;2024-03-17T10:08:41;101018.88;;;14.78;54.42
16355;BME280;8287;51.644;8.494;2024-03-17T10:11:08;101010.28;;;14.81;54.33
16355;BME280;8287;51.644;8.494;2024-03-17T10:13:35;101008.97;;;14.36;51.02
16355;BME280;8287;51.644;8.494;2024-03-17T10:16:01;100995.53;;;14.58;53.37
16355;BME280;8287;51.644;8.494;2024-03-17T10:18:28;101003.06;;;14.56;53.20
16355;BME280;8287;51.644;8.494;2024-03-17T10:20:54;101004.13;;;14.21;52.51
16355;BME280;8287;51.644;8.494;2024-03-17T10:23:23;100996.75;;;14.52;54.03
16355;BME280;8287;51.644;8.494;2024-03-17T10:25:49;100998.00;;;14.97;52.61
16355;BME280;8287;51.644;8.494;2024-03-17T10:28:17;100997.81;;;15.11;52.96
16355;BME280;8287;51.644;8.494;2024-03-17T10:31:00;100988.97;;;15.27;51.55
16355;BME280;8287;51.644;8.494;2024-03-17T10:33:27;100989.16;;;15.39;51.57
16355;BME280;8287;51.644;8.494;2024-03-17T10:36:01;100979.69;;;15.42;50.12
16355;BME280;8287;51.644;8.494;2024-03-17T10:38:30;100989.25;;;15.51;50.20
16355;BME280;8287;51.644;8.494;2024-03-17T10:40:57;100985.41;;;15.69;51.93
16355;BME280;8287;51.644;8.494;2024-03-17T10:43:23;100973.88;;;15.77;51.89
16355;BME280;8287;51.644;8.494;2024-03-17T10:45:58;100969.81;;;15.42;53.75
16355;BME280;8287;51.644;8.494;2024-03-17T10:48:26;100971.56;;;15.76;52.40
16355;BME280;8287;51.644;8.494;2024-03-17T10:50:59;100961.47;;;15.81;53.53
16355;BME280;8287;51.644;8.494;2024-03-17T10:53:26;100963.91;;;16.15;50.60
16355;BME280;8287;51.644;8.494;2024-03-17T10:56:04;100969.25;;;16.15;52.17
16355;BME280;8287;51.644;8.494;2024-03-17T10:58:35;100978.41;;;15.85;52.60
16355;BME280;8287;51.644;8.494;2024-03-17T11:01:03;100979.88;;;15.28;50.38
16355;BME280;8287;51.644;8.494;2024-03-17T11:03:34;100983.66;;;15.36;51.76
16355;BME280;8287;51.644;8.494;2024-03-17T11:06:03;100994.75;;;15.84;52.35
16355;BME280;8287;51.644;8.494;2024-03-17T11:08:32;100980.34;;;16.05;51.26
16355;BME280;8287;51.644;8.494;2024-03-17T11:10:59;100988.25;;;16.22;52.14
16355;BME280;8287;51.644;8.494;2024-03-17T11:13:27;100982.78;;;16.19;51.36
16355;BME280;8287;51.644;8.494;2024-03-17T11:15:55;100989.16;;;16.26;51.32
16355;BME280;8287;51.644;8.494;2024-03-17T11:21:02;100981.97;;;16.47;49.78
16355;BME280;8287;51.644;8.494;2024-03-17T11:23:37;100975.66;;;16.23;52.89
16355;BME280;8287;51.644;8.494;2024-03-17T11:26:05;100970.88;;;16.28;50.10
16355;BME280;8287;51.644;8.494;2024-03-17T11:31:44;100972.69;;;16.45;50.80
16355;BME280;8287;51.644;8.494;2024-03-17T11:34:29;100962.84;;;16.57;52.75
16355;BME280;8287;51.644;8.494;2024-03-17T11:36:56;100968.69;;;16.51;51.62
16355;BME280;8287;51.644;8.494;2024-03-17T11:39:53;100967.47;;;16.69;51.05
16355;BME280;8287;51.644;8.494;2024-03-17T11:42:25;100967.63;;;16.84;51.09
16355;BME280;8287;51.644;8.494;2024-03-17T11:45:19;100960.41;;;16.64;48.95
16355;BME280;8287;51.644;8.494;2024-03-17T11:47:47;100972.13;;;16.39;50.96
16355;BME280;8287;51.644;8.494;2024-03-17T11:50:15;100963.81;;;16.85;52.01
16355;BME280;8287;51.644;8.494;2024-03-17T11:52:41;100965.38;;;16.54;49.42
16355;BME280;8287;51.644;8.494;2024-03-17T11:55:19;100961.59;;;16.55;48.63
16355;BME280;8287;51.644;8.494;2024-03-17T11:57:45;100964.16;;;16.83;47.59
16355;BME280;8287;51.644;8.494;2024-03-17T12:00:22;100959.03;;;16.90;47.17
16355;BME280;8287;51.644;8.494;2024-03-17T12:02:49;100951.69;;;16.87;49.43
16355;BME280;8287;51.644;8.494;2024-03-17T12:05:15;100960.22;;;17.25;47.73
16355;BME280;8287;51.644;8.494;2024-03-17T12:07:42;100947.63;;;17.14;48.36
16355;BME280;8287;51.644;8.494;2024-03-17T12:10:10;100961.91;;;17.30;49.43
16355;BME280;8287;51.644;8.494;2024-03-17T12:12:38;100956.44;;;17.14;47.01
16355;BME280;8287;51.644;8.494;2024-03-17T12:15:16;100946.47;;;16.91;46.85
16355;BME280;8287;51.644;8.494;2024-03-17T12:17:43;100955.59;;;16.90;48.72
16355;BME280;8287;51.644;8.494;2024-03-17T12:20:21;100949.00;;;17.32;47.60
16355;BME280;8287;51.644;8.494;2024-03-17T12:22:48;100954.34;;;17.32;48.94
16355;BME280;8287;51.644;8.494;2024-03-17T12:25:20;100952.50;;;17.12;46.58
16355;BME280;8287;51.644;8.494;2024-03-17T12:27:48;100947.03;;;17.41;47.78
16355;BME280;8287;51.644;8.494;2024-03-17T12:30:14;100945.19;;;17.33;46.51
16355;BME280;8287;51.644;8.494;2024-03-17T12:32:45;100946.34;;;17.44;47.53
16355;BME280;8287;51.644;8.494;2024-03-17T12:35:15;100945.84;;;17.30;48.47
16355;BME280;8287;51.644;8.494;2024-03-17T12:37:46;100941.00;;;17.68;46.39
16355;BME280;8287;51.644;8.494;2024-03-17T12:40:22;100945.78;;;17.50;48.71
16355;BME280;8287;51.644;8.494;2024-03-17T12:42:52;100942.22;;;17.70;47.50
16355;BME280;8287;51.644;8.494;2024-03-17T12:45:21;100939.97;;;17.84;48.91
16355;BME280;8287;51.644;8.494;2024-03-17T12:47:50;100946.09;;;17.97;48.08
16355;BME280;8287;51.644;8.494;2024-03-17T12:50:16;100946.22;;;17.76;46.95
16355;BME280;8287;51.644;8.494;2024-03-17T12:52:54;100952.00;;;17.30;46.70
16355;BME280;8287;51.644;8.494;2024-03-17T12:55:20;100954.91;;;16.20;46.68
16355;BME280;8287;51.644;8.494;2024-03-17T12:58:14;100953.47;;;16.63;46.48
16355;BME280;8287;51.644;8.494;2024-03-17T13:01:05;100937.38;;;16.83;48.71
16355;BME280;8287;51.644;8.494;2024-03-17T13:03:34;100931.78;;;17.21;46.83
16355;BME280;8287;51.644;8.494;2024-03-17T13:06:01;100929.28;;;17.36;47.21
16355;BME280;8287;51.644;8.494;2024-03-17T13:08:29;100923.25;;;16.95;47.34
16355;BME280;8287;51.644;8.494;2024-03-17T13:10:58;100924.41;;;16.21;50.04
16355;BME280;8287;51.644;8.494;2024-03-17T13:13:25;100918.06;;;16.78;50.01
16355;BME280;8287;51.644;8.494;2024-03-17T13:15:51;100913.59;;;17.14;48.53
16355;BME280;8287;51.644;8.494;2024-03-17T13:18:19;100910.75;;;17.43;49.40
16355;BME280;8287;51.644;8.494;2024-03-17T13:20:49;100911.75;;;17.51;47.68